sensor_id;sensor_type;location;lat;lon;timestamp;P1;durP1;ratioP1;P2;durP2;ratioP2
12469;SDS011;36499;46.484;13.832;2022-11-14T00:00:52;18.63;;;15.00;;
12469;SDS011;36499;46.484;13.832;2022-11-14T00:03:20;17.83;;;14.40;;
12469;SDS011;36499;46.484;13.832;2022-11-14T00:05:47;16.80;;;14.10;;
12469;SDS011;36499;46.484;13.832;2022-11-14T00:08:15;18.70;;;14.53;;
12469;SDS011;36499;46.484;13.832;2022-11-14T00:10:45;18.10;;;14.63;;
12469;SDS011;36499;46.484;13.832;2022-11-14T00:13:13;17.43;;;13.30;;
12469;SDS011;36499;46.484;13.832;2022-11-14T00:15:41;19.70;;;13.80;;
12469;SDS011;36499;46.484;13.832;2022-11-14T00:18:10;17.43;;;13.63;;
12469;SDS011;36499;46.484;13.832;2022-11-14T00:20:37;18.00;;;13.93;;
12469;SDS011;36499;46.484;13.832;2022-11-14T00:23:04;20.30;;;14.20;;
12469;SDS011;36499;46.484;13.832;2022-11-14T00:25:31;18.70;;;14.67;;
12469;SDS011;36499;46.484;13.832;2022-11-14T00:27:58;19.00;;;14.87;;
12469;SDS011;36499;46.484;13.832;2022-11-14T00:30:26;21.73;;;16.20;;
12469;SDS011;36499;46.484;13.832;2022-11-14T00:32:53;20.33;;;16.20;;
12469;SDS011;36499;46.484;13.832;2022-11-14T00:35:22;19.90;;;14.70;;
12469;SDS011;36499;46.484;13.832;2022-11-14T00:37:49;19.80;;;15.10;;
12469;SDS011;36499;46.484;13.832;2022-11-14T00:40:16;21.50;;;16.00;;
12469;SDS011;36499;46.484;13.832;2022-11-14T00:42:43;21.43;;;16.67;;
12469;SDS011;36499;46.484;13.832;2022-11-14T00:45:10;22.27;;;15.57;;
12469;SDS011;36499;46.484;13.832;2022-11-14T00:47:37;24.63;;;17.17;;
12469;SDS011;36499;46.484;13.832;2022-11-14T00:50:05;22.00;;;16.17;;
12469;SDS011;36499;46.484;13.832;2022-11-14T00:52:34;23.37;;;16.30;;
12469;SDS011;36499;46.484;13.832;2022-11-14T00:55:01;21.70;;;15.83;;
12469;SDS011;36499;46.484;13.832;2022-11-14T00:57:29;19.63;;;15.13;;
12469;SDS011;36499;46.484;13.832;2022-11-14T00:59:56;21.33;;;15.47;;
12469;SDS011;36499;46.484;13.832;2022-11-14T01:02:23;19.93;;;14.93;;
12469;SDS011;36499;46.484;13.832;2022-11-14T01:04:50;20.37;;;14.93;;
12469;SDS011;36499;46.484;13.832;2022-11-14T01:07:18;20.30;;;14.87;;
12469;SDS011;36499;46.484;13.832;2022-11-14T01:09:46;17.70;;;12.83;;
12469;SDS011;36499;46.484;13.832;2022-11-14T01:12:13;18.83;;;14.87;;
12469;SDS011;36499;46.484;13.832;2022-11-14T01:14:40;20.43;;;14.47;;
12469;SDS011;36499;46.484;13.832;2022-11-14T01:17:07;17.97;;;13.83;;
12469;SDS011;36499;46.484;13.832;2022-11-14T01:19:34;18.60;;;13.97;;
12469;SDS011;36499;46.484;13.832;2022-11-14T01:22:02;19.17;;;14.27;;
12469;SDS011;36499;46.484;13.832;2022-11-14T01:24:30;19.63;;;13.87;;
12469;SDS011;36499;46.484;13.832;2022-11-14T01:26:59;21.10;;;14.53;;
12469;SDS011;36499;46.484;13.832;2022-11-14T01:29:27;19.73;;;14.17;;
12469;SDS011;36499;46.484;13.832;2022-11-14T01:31:55;21.20;;;14.57;;
12469;SDS011;36499;46.484;13.832;2022-11-14T01:34:22;24.20;;;15.67;;
12469;SDS011;36499;46.484;13.832;2022-11-14T01:36:50;19.20;;;14.03;;
12469;SDS011;36499;46.484;13.832;2022-11-14T01:39:18;20.80;;;15.67;;
12469;SDS011;36499;46.484;13.832;2022-11-14T01:41:45;21.83;;;14.53;;
12469;SDS011;36499;46.484;13.832;2022-11-14T01:44:14;18.10;;;13.87;;
12469;SDS011;36499;46.484;13.832;2022-11-14T01:47:02;19.00;;;14.43;;
12469;SDS011;36499;46.484;13.832;2022-11-14T01:49:33;20.07;;;15.20;;
12469;SDS011;36499;46.484;13.832;2022-11-14T01:52:05;22.57;;;15.53;;
12469;SDS011;36499;46.484;13.832;2022-11-14T01:54:37;21.83;;;14.10;;
12469;SDS011;36499;46.484;13.832;2022-11-14T01:57:09;19.93;;;14.90;;
12469;SDS011;36499;46.484;13.832;2022-11-14T01:59:41;20.53;;;15.40;;
12469;SDS011;36499;46.484;13.832;2022-11-14T02:02:15;23.33;;;15.63;;
12469;SDS011;36499;46.484;13.832;2022-11-14T02:04:47;22.33;;;15.50;;
12469;SDS011;36499;46.484;13.832;2022-11-14T02:07:20;25.00;;;17.00;;
12469;SDS011;36499;46.484;13.832;2022-11-14T02:09:50;22.80;;;16.70;;
12469;SDS011;36499;46.484;13.832;2022-11-14T02:12:18;22.27;;;15.83;;
12469;SDS011;36499;46.484;13.832;2022-11-14T02:14:49;24.60;;;15.87;;
12469;SDS011;36499;46.484;13.832;2022-11-14T02:17:22;21.83;;;15.57;;
12469;SDS011;36499;46.484;13.832;2022-11-14T02:19:51;26.53;;;16.80;;
12469;SDS011;36499;46.484;13.832;2022-11-14T02:22:23;23.53;;;16.63;;
12469;SDS011;36499;46.484;13.832;2022-11-14T02:24:50;30.03;;;20.70;;
12469;SDS011;36499;46.484;13.832;2022-11-14T02:27:17;31.43;;;20.87;;
12469;SDS011;36499;46.484;13.832;2022-11-14T02:29:44;24.87;;;16.90;;
12469;SDS011;36499;46.484;13.832;2022-11-14T02:32:11;21.03;;;15.87;;
12469;SDS011;36499;46.484;13.832;2022-11-14T02:34:38;24.13;;;16.53;;
12469;SDS011;36499;46.484;13.832;2022-11-14T02:37:05;22.23;;;14.97;;
12469;SDS011;36499;46.484;13.832;2022-11-14T02:39:34;19.63;;;15.80;;
12469;SDS011;36499;46.484;13.832;2022-11-14T02:42:03;19.53;;;15.03;;
12469;SDS011;36499;46.484;13.832;2022-11-14T02:44:30;18.90;;;14.33;;
12469;SDS011;36499;46.484;13.832;2022-11-14T02:46:57;18.13;;;13.40;;
12469;SDS011;36499;46.484;13.832;2022-11-14T02:49:24;17.17;;;13.37;;
12469;SDS011;36499;46.484;13.832;2022-11-14T02:51:51;20.37;;;13.73;;
12469;SDS011;36499;46.484;13.832;2022-11-14T02:54:18;19.70;;;14.40;;
12469;SDS011;36499;46.484;13.832;2022-11-14T02:56:47;16.83;;;12.73;;
12469;SDS011;36499;46.484;13.832;2022-11-14T02:59:14;17.63;;;13.43;;
12469;SDS011;36499;46.484;13.832;2022-11-14T03:01:41;17.13;;;13.30;;
12469;SDS011;36499;46.484;13.832;2022-11-14T03:04:08;20.23;;;13.97;;
12469;SDS011;36499;46.484;13.832;2022-11-14T03:06:35;15.90;;;12.50;;
12469;SDS011;36499;46.484;13.832;2022-11-14T03:09:02;15.73;;;12.93;;
12469;SDS011;36499;46.484;13.832;2022-11-14T03:11:29;15.77;;;11.83;;
12469;SDS011;36499;46.484;13.832;2022-11-14T03:13:59;15.23;;;11.93;;
12469;SDS011;36499;46.484;13.832;2022-11-14T03:16:26;15.63;;;12.10;;
12469;SDS011;36499;46.484;13.832;2022-11-14T03:18:53;17.67;;;13.23;;
12469;SDS011;36499;46.484;13.832;2022-11-14T03:21:20;18.07;;;13.37;;
12469;SDS011;36499;46.484;13.832;2022-11-14T03:23:48;18.73;;;13.90;;
12469;SDS011;36499;46.484;13.832;2022-11-14T03:26:15;15.87;;;12.57;;
12469;SDS011;36499;46.484;13.832;2022-11-14T03:28:43;17.13;;;13.17;;
12469;SDS011;36499;46.484;13.832;2022-11-14T03:31:12;18.47;;;12.87;;
12469;SDS011;36499;46.484;13.832;2022-11-14T03:33:40;16.47;;;12.23;;
12469;SDS011;36499;46.484;13.832;2022-11-14T03:36:07;17.57;;;13.00;;
12469;SDS011;36499;46.484;13.832;2022-11-14T03:38:34;18.70;;;13.83;;
12469;SDS011;36499;46.484;13.832;2022-11-14T03:41:02;18.63;;;14.23;;
12469;SDS011;36499;46.484;13.832;2022-11-14T03:43:29;19.07;;;14.37;;
12469;SDS011;36499;46.484;13.832;2022-11-14T03:45:58;19.63;;;14.77;;
12469;SDS011;36499;46.484;13.832;2022-11-14T03:48:28;19.20;;;15.23;;
12469;SDS011;36499;46.484;13.832;2022-11-14T03:50:56;17.67;;;14.17;;
12469;SDS011;36499;46.484;13.832;2022-11-14T03:53:24;21.87;;;16.07;;
12469;SDS011;36499;46.484;13.832;2022-11-14T03:55:52;19.13;;;15.67;;
12469;SDS011;36499;46.484;13.832;2022-11-14T03:58:20;21.27;;;16.40;;
12469;SDS011;36499;46.484;13.832;2022-11-14T04:00:47;22.60;;;16.63;;
12469;SDS011;36499;46.484;13.832;2022-11-14T04:03:14;22.20;;;16.80;;
12469;SDS011;36499;46.484;13.832;2022-11-14T04:05:43;20.13;;;15.17;;
12469;SDS011;36499;46.484;13.832;2022-11-14T04:08:11;18.97;;;15.33;;
12469;SDS011;36499;46.484;13.832;2022-11-14T04:10:38;22.00;;;16.13;;
12469;SDS011;36499;46.484;13.832;2022-11-14T04:13:05;19.17;;;14.90;;
12469;SDS011;36499;46.484;13.832;2022-11-14T04:15:33;20.40;;;16.57;;
12469;SDS011;36499;46.484;13.832;2022-11-14T04:18:00;22.07;;;14.67;;
12469;SDS011;36499;46.484;13.832;2022-11-14T04:20:27;20.20;;;14.70;;
12469;SDS011;36499;46.484;13.832;2022-11-14T04:22:56;17.63;;;14.73;;
12469;SDS011;36499;46.484;13.832;2022-11-14T04:25:23;20.17;;;15.07;;
12469;SDS011;36499;46.484;13.832;2022-11-14T04:27:50;20.33;;;15.33;;
12469;SDS011;36499;46.484;13.832;2022-11-14T04:30:17;19.23;;;14.00;;
12469;SDS011;36499;46.484;13.832;2022-11-14T04:32:44;17.17;;;12.90;;
12469;SDS011;36499;46.484;13.832;2022-11-14T04:35:13;15.83;;;12.37;;
12469;SDS011;36499;46.484;13.832;2022-11-14T04:37:40;17.27;;;13.57;;
12469;SDS011;36499;46.484;13.832;2022-11-14T04:40:09;16.87;;;13.13;;
12469;SDS011;36499;46.484;13.832;2022-11-14T04:42:40;18.13;;;13.70;;
12469;SDS011;36499;46.484;13.832;2022-11-14T04:45:07;18.07;;;14.77;;
12469;SDS011;36499;46.484;13.832;2022-11-14T04:47:35;19.60;;;15.37;;
12469;SDS011;36499;46.484;13.832;2022-11-14T04:50:03;20.27;;;15.27;;
12469;SDS011;36499;46.484;13.832;2022-11-14T04:52:31;17.33;;;13.10;;
12469;SDS011;36499;46.484;13.832;2022-11-14T04:54:58;17.17;;;12.93;;
12469;SDS011;36499;46.484;13.832;2022-11-14T04:57:27;15.50;;;12.37;;
12469;SDS011;36499;46.484;13.832;2022-11-14T04:59:54;17.27;;;11.83;;
12469;SDS011;36499;46.484;13.832;2022-11-14T05:02:21;15.50;;;10.80;;
12469;SDS011;36499;46.484;13.832;2022-11-14T05:04:48;16.57;;;12.47;;
12469;SDS011;36499;46.484;13.832;2022-11-14T05:07:15;15.07;;;11.00;;
12469;SDS011;36499;46.484;13.832;2022-11-14T05:09:42;14.23;;;11.83;;
12469;SDS011;36499;46.484;13.832;2022-11-14T05:12:09;15.33;;;12.70;;
12469;SDS011;36499;46.484;13.832;2022-11-14T05:14:37;20.47;;;15.23;;
12469;SDS011;36499;46.484;13.832;2022-11-14T05:17:04;19.73;;;15.53;;
12469;SDS011;36499;46.484;13.832;2022-11-14T05:19:31;22.67;;;17.67;;
12469;SDS011;36499;46.484;13.832;2022-11-14T05:21:58;21.53;;;17.13;;
12469;SDS011;36499;46.484;13.832;2022-11-14T05:24:25;24.53;;;17.43;;
12469;SDS011;36499;46.484;13.832;2022-11-14T05:26:53;23.57;;;17.83;;
12469;SDS011;36499;46.484;13.832;2022-11-14T05:29:20;22.70;;;18.10;;
12469;SDS011;36499;46.484;13.832;2022-11-14T05:31:48;24.83;;;17.67;;
12469;SDS011;36499;46.484;13.832;2022-11-14T05:34:15;23.10;;;17.83;;
12469;SDS011;36499;46.484;13.832;2022-11-14T05:36:42;23.97;;;18.20;;
12469;SDS011;36499;46.484;13.832;2022-11-14T05:39:10;25.47;;;19.27;;
12469;SDS011;36499;46.484;13.832;2022-11-14T05:41:37;27.97;;;20.70;;
12469;SDS011;36499;46.484;13.832;2022-11-14T05:44:04;28.17;;;19.73;;
12469;SDS011;36499;46.484;13.832;2022-11-14T05:46:31;28.33;;;20.97;;
12469;SDS011;36499;46.484;13.832;2022-11-14T05:49:00;28.00;;;21.13;;
12469;SDS011;36499;46.484;13.832;2022-11-14T05:51:27;30.13;;;22.00;;
12469;SDS011;36499;46.484;13.832;2022-11-14T05:53:55;31.17;;;21.73;;
12469;SDS011;36499;46.484;13.832;2022-11-14T05:56:22;28.33;;;20.77;;
12469;SDS011;36499;46.484;13.832;2022-11-14T05:58:49;31.33;;;20.63;;
12469;SDS011;36499;46.484;13.832;2022-11-14T06:01:17;31.17;;;21.50;;
12469;SDS011;36499;46.484;13.832;2022-11-14T06:03:46;24.80;;;20.20;;
12469;SDS011;36499;46.484;13.832;2022-11-14T06:06:16;28.90;;;20.63;;
12469;SDS011;36499;46.484;13.832;2022-11-14T06:08:45;25.63;;;19.70;;
12469;SDS011;36499;46.484;13.832;2022-11-14T06:11:14;26.53;;;19.63;;
12469;SDS011;36499;46.484;13.832;2022-11-14T06:13:43;26.00;;;19.27;;
12469;SDS011;36499;46.484;13.832;2022-11-14T06:16:11;34.73;;;25.47;;
12469;SDS011;36499;46.484;13.832;2022-11-14T06:18:41;27.10;;;20.13;;
12469;SDS011;36499;46.484;13.832;2022-11-14T06:21:09;27.03;;;20.13;;
12469;SDS011;36499;46.484;13.832;2022-11-14T06:23:39;28.37;;;21.33;;
12469;SDS011;36499;46.484;13.832;2022-11-14T06:26:11;28.17;;;20.87;;
12469;SDS011;36499;46.484;13.832;2022-11-14T06:28:46;27.27;;;19.90;;
12469;SDS011;36499;46.484;13.832;2022-11-14T06:31:14;29.70;;;21.20;;
12469;SDS011;36499;46.484;13.832;2022-11-14T06:33:42;28.90;;;20.77;;
12469;SDS011;36499;46.484;13.832;2022-11-14T06:36:10;28.93;;;21.57;;
12469;SDS011;36499;46.484;13.832;2022-11-14T06:38:40;30.67;;;21.03;;
12469;SDS011;36499;46.484;13.832;2022-11-14T06:41:08;30.53;;;22.13;;
12469;SDS011;36499;46.484;13.832;2022-11-14T06:43:38;28.23;;;20.47;;
12469;SDS011;36499;46.484;13.832;2022-11-14T06:46:07;28.87;;;21.27;;
12469;SDS011;36499;46.484;13.832;2022-11-14T06:48:36;29.53;;;20.77;;
12469;SDS011;36499;46.484;13.832;2022-11-14T06:51:04;29.50;;;21.33;;
12469;SDS011;36499;46.484;13.832;2022-11-14T06:53:34;28.63;;;20.27;;
12469;SDS011;36499;46.484;13.832;2022-11-14T06:56:03;27.87;;;20.57;;
12469;SDS011;36499;46.484;13.832;2022-11-14T06:58:34;29.90;;;22.20;;
12469;SDS011;36499;46.484;13.832;2022-11-14T07:01:04;27.30;;;19.90;;
12469;SDS011;36499;46.484;13.832;2022-11-14T07:03:37;26.20;;;19.23;;
12469;SDS011;36499;46.484;13.832;2022-11-14T07:06:04;27.03;;;18.40;;
12469;SDS011;36499;46.484;13.832;2022-11-14T07:08:33;26.73;;;18.97;;
12469;SDS011;36499;46.484;13.832;2022-11-14T07:11:02;25.27;;;18.73;;
12469;SDS011;36499;46.484;13.832;2022-11-14T07:13:32;25.37;;;17.90;;
12469;SDS011;36499;46.484;13.832;2022-11-14T07:16:00;26.60;;;16.87;;
12469;SDS011;36499;46.484;13.832;2022-11-14T07:18:29;25.40;;;19.17;;
12469;SDS011;36499;46.484;13.832;2022-11-14T07:20:58;23.03;;;17.50;;
12469;SDS011;36499;46.484;13.832;2022-11-14T07:23:29;24.97;;;18.83;;
12469;SDS011;36499;46.484;13.832;2022-11-14T07:25:59;33.73;;;20.73;;
12469;SDS011;36499;46.484;13.832;2022-11-14T07:28:29;23.37;;;17.83;;
12469;SDS011;36499;46.484;13.832;2022-11-14T07:30:57;25.90;;;18.57;;
12469;SDS011;36499;46.484;13.832;2022-11-14T07:33:24;25.33;;;18.67;;
12469;SDS011;36499;46.484;13.832;2022-11-14T07:35:51;22.80;;;17.20;;
12469;SDS011;36499;46.484;13.832;2022-11-14T07:38:18;23.20;;;18.47;;
12469;SDS011;36499;46.484;13.832;2022-11-14T07:40:51;22.20;;;17.70;;
12469;SDS011;36499;46.484;13.832;2022-11-14T07:43:19;21.87;;;16.87;;
12469;SDS011;36499;46.484;13.832;2022-11-14T07:45:48;21.63;;;16.53;;
12469;SDS011;36499;46.484;13.832;2022-11-14T07:48:16;20.60;;;16.60;;
12469;SDS011;36499;46.484;13.832;2022-11-14T07:50:45;22.17;;;16.13;;
12469;SDS011;36499;46.484;13.832;2022-11-14T07:53:13;20.93;;;15.90;;
12469;SDS011;36499;46.484;13.832;2022-11-14T07:55:41;20.40;;;15.37;;
12469;SDS011;36499;46.484;13.832;2022-11-14T07:58:09;18.07;;;14.97;;
12469;SDS011;36499;46.484;13.832;2022-11-14T08:00:36;21.13;;;16.73;;
12469;SDS011;36499;46.484;13.832;2022-11-14T08:03:06;22.97;;;17.63;;
12469;SDS011;36499;46.484;13.832;2022-11-14T08:05:36;24.83;;;17.50;;
12469;SDS011;36499;46.484;13.832;2022-11-14T08:08:03;19.67;;;15.37;;
12469;SDS011;36499;46.484;13.832;2022-11-14T08:10:30;21.67;;;16.20;;
12469;SDS011;36499;46.484;13.832;2022-11-14T08:12:57;21.67;;;16.40;;
12469;SDS011;36499;46.484;13.832;2022-11-14T08:15:25;22.97;;;17.30;;
12469;SDS011;36499;46.484;13.832;2022-11-14T08:17:55;22.70;;;16.93;;
12469;SDS011;36499;46.484;13.832;2022-11-14T08:20:25;23.07;;;18.17;;
12469;SDS011;36499;46.484;13.832;2022-11-14T08:22:52;26.53;;;18.57;;
12469;SDS011;36499;46.484;13.832;2022-11-14T08:25:26;22.07;;;17.10;;
12469;SDS011;36499;46.484;13.832;2022-11-14T08:27:53;22.27;;;16.43;;
12469;SDS011;36499;46.484;13.832;2022-11-14T08:30:20;24.10;;;18.10;;
12469;SDS011;36499;46.484;13.832;2022-11-14T08:32:47;18.87;;;15.43;;
12469;SDS011;36499;46.484;13.832;2022-11-14T08:35:14;17.53;;;14.30;;
12469;SDS011;36499;46.484;13.832;2022-11-14T08:37:43;21.77;;;15.27;;
12469;SDS011;36499;46.484;13.832;2022-11-14T08:40:11;21.17;;;16.17;;
12469;SDS011;36499;46.484;13.832;2022-11-14T08:42:38;20.67;;;15.47;;
12469;SDS011;36499;46.484;13.832;2022-11-14T08:45:05;22.70;;;15.17;;
12469;SDS011;36499;46.484;13.832;2022-11-14T08:47:33;19.63;;;16.17;;
12469;SDS011;36499;46.484;13.832;2022-11-14T08:50:00;17.93;;;14.40;;
12469;SDS011;36499;46.484;13.832;2022-11-14T08:52:27;16.67;;;13.53;;
12469;SDS011;36499;46.484;13.832;2022-11-14T08:54:55;19.80;;;15.00;;
12469;SDS011;36499;46.484;13.832;2022-11-14T08:57:22;18.90;;;14.97;;
12469;SDS011;36499;46.484;13.832;2022-11-14T08:59:49;14.33;;;12.33;;
12469;SDS011;36499;46.484;13.832;2022-11-14T09:02:16;15.87;;;12.30;;
12469;SDS011;36499;46.484;13.832;2022-11-14T09:04:43;13.83;;;10.80;;
12469;SDS011;36499;46.484;13.832;2022-11-14T09:07:10;9.47;;;7.77;;
12469;SDS011;36499;46.484;13.832;2022-11-14T09:09:38;9.50;;;7.73;;
12469;SDS011;36499;46.484;13.832;2022-11-14T09:12:06;7.70;;;6.70;;
12469;SDS011;36499;46.484;13.832;2022-11-14T09:14:33;8.00;;;6.80;;
12469;SDS011;36499;46.484;13.832;2022-11-14T09:17:00;10.70;;;7.50;;
12469;SDS011;36499;46.484;13.832;2022-11-14T09:19:27;7.53;;;6.50;;
12469;SDS011;36499;46.484;13.832;2022-11-14T09:21:54;6.30;;;5.63;;
12469;SDS011;36499;46.484;13.832;2022-11-14T09:24:22;6.60;;;5.97;;
12469;SDS011;36499;46.484;13.832;2022-11-14T09:26:49;7.90;;;6.37;;
12469;SDS011;36499;46.484;13.832;2022-11-14T09:29:19;8.07;;;5.80;;
12469;SDS011;36499;46.484;13.832;2022-11-14T09:31:46;7.57;;;4.83;;
12469;SDS011;36499;46.484;13.832;2022-11-14T09:34:13;5.80;;;4.60;;
12469;SDS011;36499;46.484;13.832;2022-11-14T09:36:40;6.27;;;5.20;;
12469;SDS011;36499;46.484;13.832;2022-11-14T09:39:07;6.83;;;4.60;;
12469;SDS011;36499;46.484;13.832;2022-11-14T09:41:39;7.03;;;4.90;;
12469;SDS011;36499;46.484;13.832;2022-11-14T09:44:31;5.70;;;4.97;;
12469;SDS011;36499;46.484;13.832;2022-11-14T09:47:20;6.03;;;5.13;;
12469;SDS011;36499;46.484;13.832;2022-11-14T09:49:54;5.83;;;4.87;;
12469;SDS011;36499;46.484;13.832;2022-11-14T09:52:34;5.83;;;5.10;;
12469;SDS011;36499;46.484;13.832;2022-11-14T09:55:08;6.00;;;5.40;;
12469;SDS011;36499;46.484;13.832;2022-11-14T09:57:39;5.97;;;5.03;;
12469;SDS011;36499;46.484;13.832;2022-11-14T10:00:14;7.90;;;5.57;;
12469;SDS011;36499;46.484;13.832;2022-11-14T10:02:51;6.67;;;5.60;;
12469;SDS011;36499;46.484;13.832;2022-11-14T10:05:36;7.27;;;6.07;;
12469;SDS011;36499;46.484;13.832;2022-11-14T10:08:28;6.13;;;5.53;;
12469;SDS011;36499;46.484;13.832;2022-11-14T10:11:11;6.47;;;5.50;;
12469;SDS011;36499;46.484;13.832;2022-11-14T10:16:53;5.80;;;5.20;;
12469;SDS011;36499;46.484;13.832;2022-11-14T10:19:34;6.20;;;5.60;;
12469;SDS011;36499;46.484;13.832;2022-11-14T10:22:12;6.73;;;5.93;;
12469;SDS011;36499;46.484;13.832;2022-11-14T10:25:09;7.53;;;6.73;;
12469;SDS011;36499;46.484;13.832;2022-11-14T10:27:53;9.53;;;8.17;;
12469;SDS011;36499;46.484;13.832;2022-11-14T10:30:43;10.13;;;8.67;;
12469;SDS011;36499;46.484;13.832;2022-11-14T10:33:25;10.93;;;9.57;;
12469;SDS011;36499;46.484;13.832;2022-11-14T10:36:16;13.23;;;9.43;;
12469;SDS011;36499;46.484;13.832;2022-11-14T10:39:02;11.43;;;9.17;;
12469;SDS011;36499;46.484;13.832;2022-11-14T10:41:40;11.33;;;9.57;;
12469;SDS011;36499;46.484;13.832;2022-11-14T10:44:09;11.93;;;9.10;;
12469;SDS011;36499;46.484;13.832;2022-11-14T10:46:44;8.93;;;8.03;;
12469;SDS011;36499;46.484;13.832;2022-11-14T10:49:21;10.63;;;9.03;;
12469;SDS011;36499;46.484;13.832;2022-11-14T10:51:50;11.17;;;9.30;;
12469;SDS011;36499;46.484;13.832;2022-11-14T10:54:23;10.37;;;9.13;;
12469;SDS011;36499;46.484;13.832;2022-11-14T10:56:59;11.20;;;9.33;;
12469;SDS011;36499;46.484;13.832;2022-11-14T10:59:26;11.00;;;9.90;;
12469;SDS011;36499;46.484;13.832;2022-11-14T11:01:54;10.87;;;9.73;;
12469;SDS011;36499;46.484;13.832;2022-11-14T11:04:26;11.87;;;9.80;;
12469;SDS011;36499;46.484;13.832;2022-11-14T11:06:55;12.60;;;10.10;;
12469;SDS011;36499;46.484;13.832;2022-11-14T11:09:57;10.53;;;9.10;;
12469;SDS011;36499;46.484;13.832;2022-11-14T11:12:45;11.53;;;9.87;;
12469;SDS011;36499;46.484;13.832;2022-11-14T11:15:15;10.37;;;9.20;;
12469;SDS011;36499;46.484;13.832;2022-11-14T11:17:52;10.07;;;8.93;;
12469;SDS011;36499;46.484;13.832;2022-11-14T11:20:26;8.60;;;7.70;;
12469;SDS011;36499;46.484;13.832;2022-11-14T11:23:01;10.60;;;8.40;;
12469;SDS011;36499;46.484;13.832;2022-11-14T11:25:31;8.90;;;7.70;;
12469;SDS011;36499;46.484;13.832;2022-11-14T11:28:03;9.13;;;8.13;;
12469;SDS011;36499;46.484;13.832;2022-11-14T11:30:33;8.67;;;7.23;;
12469;SDS011;36499;46.484;13.832;2022-11-14T11:33:16;6.93;;;5.93;;
12469;SDS011;36499;46.484;13.832;2022-11-14T11:35:52;7.70;;;6.90;;
12469;SDS011;36499;46.484;13.832;2022-11-14T11:38:23;8.33;;;7.20;;
12469;SDS011;36499;46.484;13.832;2022-11-14T11:40:53;11.67;;;8.57;;
12469;SDS011;36499;46.484;13.832;2022-11-14T11:43:33;8.13;;;7.03;;
12469;SDS011;36499;46.484;13.832;2022-11-14T11:46:10;7.90;;;7.10;;
12469;SDS011;36499;46.484;13.832;2022-11-14T11:48:45;9.20;;;7.20;;
12469;SDS011;36499;46.484;13.832;2022-11-14T11:51:24;7.80;;;7.00;;
12469;SDS011;36499;46.484;13.832;2022-11-14T11:53:55;8.67;;;7.80;;
12469;SDS011;36499;46.484;13.832;2022-11-14T11:56:29;8.30;;;7.20;;
12469;SDS011;36499;46.484;13.832;2022-11-14T11:58:59;8.23;;;7.23;;
12469;SDS011;36499;46.484;13.832;2022-11-14T12:01:47;9.60;;;8.60;;
12469;SDS011;36499;46.484;13.832;2022-11-14T12:04:16;9.97;;;7.73;;
12469;SDS011;36499;46.484;13.832;2022-11-14T12:06:45;9.43;;;8.43;;
12469;SDS011;36499;46.484;13.832;2022-11-14T12:09:31;11.13;;;8.50;;
12469;SDS011;36499;46.484;13.832;2022-11-14T12:12:05;9.43;;;8.33;;
12469;SDS011;36499;46.484;13.832;2022-11-14T12:14:47;9.50;;;8.03;;
12469;SDS011;36499;46.484;13.832;2022-11-14T12:20:39;8.47;;;7.50;;
12469;SDS011;36499;46.484;13.832;2022-11-14T12:26:47;8.83;;;7.93;;
12469;SDS011;36499;46.484;13.832;2022-11-14T12:29:54;9.33;;;8.13;;
12469;SDS011;36499;46.484;13.832;2022-11-14T12:32:37;8.77;;;7.33;;
12469;SDS011;36499;46.484;13.832;2022-11-14T12:35:13;8.07;;;7.27;;
12469;SDS011;36499;46.484;13.832;2022-11-14T12:37:47;8.27;;;7.40;;
12469;SDS011;36499;46.484;13.832;2022-11-14T12:40:21;8.33;;;6.97;;
12469;SDS011;36499;46.484;13.832;2022-11-14T12:42:53;7.87;;;6.97;;
12469;SDS011;36499;46.484;13.832;2022-11-14T12:48:33;8.07;;;7.27;;
12469;SDS011;36499;46.484;13.832;2022-11-14T12:51:04;8.90;;;7.00;;
12469;SDS011;36499;46.484;13.832;2022-11-14T12:57:10;8.10;;;6.73;;
12469;SDS011;36499;46.484;13.832;2022-11-14T13:00:05;8.00;;;7.20;;
12469;SDS011;36499;46.484;13.832;2022-11-14T13:05:54;7.57;;;6.87;;
12469;SDS011;36499;46.484;13.832;2022-11-14T13:08:34;8.00;;;6.93;;
12469;SDS011;36499;46.484;13.832;2022-11-14T13:11:38;9.10;;;7.80;;
12469;SDS011;36499;46.484;13.832;2022-11-14T13:14:27;10.40;;;9.27;;
12469;SDS011;36499;46.484;13.832;2022-11-14T13:17:22;9.80;;;8.23;;
12469;SDS011;36499;46.484;13.832;2022-11-14T13:20:22;8.70;;;7.37;;
12469;SDS011;36499;46.484;13.832;2022-11-14T13:35:38;10.93;;;9.77;;
12469;SDS011;36499;46.484;13.832;2022-11-14T13:41:52;12.20;;;9.90;;
12469;SDS011;36499;46.484;13.832;2022-11-14T13:48:21;11.43;;;9.00;;
12469;SDS011;36499;46.484;13.832;2022-11-14T13:51:13;49.53;;;16.10;;
12469;SDS011;36499;46.484;13.832;2022-11-14T13:53:43;27.27;;;13.13;;
12469;SDS011;36499;46.484;13.832;2022-11-14T13:56:15;11.13;;;8.23;;
12469;SDS011;36499;46.484;13.832;2022-11-14T13:59:12;8.33;;;7.43;;
12469;SDS011;36499;46.484;13.832;2022-11-14T14:02:27;8.10;;;7.30;;
12469;SDS011;36499;46.484;13.832;2022-11-14T14:05:20;10.57;;;8.40;;
12469;SDS011;36499;46.484;13.832;2022-11-14T14:08:13;9.40;;;8.37;;
12469;SDS011;36499;46.484;13.832;2022-11-14T14:11:04;9.67;;;8.67;;
12469;SDS011;36499;46.484;13.832;2022-11-14T14:13:57;14.23;;;8.87;;
12469;SDS011;36499;46.484;13.832;2022-11-14T14:16:39;8.70;;;7.80;;
12469;SDS011;36499;46.484;13.832;2022-11-14T14:19:22;8.30;;;7.50;;
12469;SDS011;36499;46.484;13.832;2022-11-14T14:22:09;9.10;;;8.20;;
12469;SDS011;36499;46.484;13.832;2022-11-14T14:24:49;9.13;;;7.57;;
12469;SDS011;36499;46.484;13.832;2022-11-14T14:27:30;8.43;;;7.27;;
12469;SDS011;36499;46.484;13.832;2022-11-14T14:30:10;8.27;;;7.43;;
12469;SDS011;36499;46.484;13.832;2022-11-14T14:32:41;8.30;;;7.30;;
12469;SDS011;36499;46.484;13.832;2022-11-14T14:35:29;9.70;;;8.70;;
12469;SDS011;36499;46.484;13.832;2022-11-14T14:37:58;10.97;;;9.77;;
12469;SDS011;36499;46.484;13.832;2022-11-14T14:40:25;11.03;;;9.07;;
12469;SDS011;36499;46.484;13.832;2022-11-14T14:42:58;10.73;;;9.63;;
12469;SDS011;36499;46.484;13.832;2022-11-14T14:45:28;12.13;;;10.80;;
12469;SDS011;36499;46.484;13.832;2022-11-14T14:48:03;11.20;;;10.00;;
12469;SDS011;36499;46.484;13.832;2022-11-14T14:50:40;10.40;;;8.33;;
12469;SDS011;36499;46.484;13.832;2022-11-14T14:53:18;8.60;;;7.70;;
12469;SDS011;36499;46.484;13.832;2022-11-14T14:55:51;9.23;;;8.33;;
12469;SDS011;36499;46.484;13.832;2022-11-14T14:58:22;9.10;;;8.17;;
12469;SDS011;36499;46.484;13.832;2022-11-14T15:00:54;8.70;;;7.90;;
12469;SDS011;36499;46.484;13.832;2022-11-14T15:03:26;9.40;;;8.27;;
12469;SDS011;36499;46.484;13.832;2022-11-14T15:06:02;10.50;;;8.43;;
12469;SDS011;36499;46.484;13.832;2022-11-14T15:08:36;9.93;;;7.50;;
12469;SDS011;36499;46.484;13.832;2022-11-14T15:11:04;8.53;;;7.53;;
12469;SDS011;36499;46.484;13.832;2022-11-14T15:13:32;10.40;;;9.13;;
12469;SDS011;36499;46.484;13.832;2022-11-14T15:16:00;9.33;;;8.37;;
12469;SDS011;36499;46.484;13.832;2022-11-14T15:18:29;9.97;;;8.37;;
12469;SDS011;36499;46.484;13.832;2022-11-14T15:21:09;9.00;;;8.07;;